sensor_id;sensor_type;location;lat;lon;timestamp;pressure;altitude;pressure_sealevel;temperature;humidity
26489;BME280;14169;43.684;10.484;2023-04-15T00:01:03;100580.22;;;13.52;100.00
26489;BME280;14169;43.684;10.484;2023-04-15T00:03:30;100579.34;;;13.52;100.00
26489;BME280;14169;43.684;10.484;2023-04-15T00:05:57;100583.59;;;13.54;100.00
26489;BME280;14169;43.684;10.484;2023-04-15T00:08:22;100570.88;;;13.46;100.00
26489;BME280;14169;43.684;10.484;2023-04-15T00:10:48;100576.47;;;13.39;100.00
26489;BME280;14169;43.684;10.484;2023-04-15T00:13:14;100565.56;;;13.29;100.00
26489;BME280;14169;43.684;10.484;2023-04-15T00:15:39;100566.78;;;13.22;100.00
26489;BME280;14169;43.684;10.484;2023-04-15T00:18:05;100555.69;;;13.16;100.00
26489;BME280;14169;43.684;10.484;2023-04-15T00:20:32;100567.13;;;13.13;100.00
26489;BME280;14169;43.684;10.484;2023-04-15T00:22:58;100562.97;;;13.09;100.00
26489;BME280;14169;43.684;10.484;2023-04-15T00:25:25;100564.09;;;13.04;100.00
26489;BME280;14169;43.684;10.484;2023-04-15T00:27:50;100572.44;;;12.93;100.00
26489;BME280;14169;43.684;10.484;2023-04-15T00:30:19;100568.91;;;12.74;100.00
26489;BME280;14169;43.684;10.484;2023-04-15T00:32:44;100569.31;;;12.65;100.00
26489;BME280;14169;43.684;10.484;2023-04-15T00:35:11;100571.25;;;12.60;100.00
26489;BME280;14169;43.684;10.484;2023-04-15T00:37:36;100562.72;;;12.56;100.00
26489;BME280;14169;43.684;10.484;2023-04-15T00:40:02;100545.47;;;12.52;100.00
26489;BME280;14169;43.684;10.484;2023-04-15T00:42:30;100549.97;;;12.49;100.00
26489;BME280;14169;43.684;10.484;2023-04-15T00:44:56;100545.91;;;12.42;100.00
26489;BME280;14169;43.684;10.484;2023-04-15T00:47:21;100537.56;;;12.34;100.00
26489;BME280;14169;43.684;10.484;2023-04-15T00:49:47;100544.03;;;12.25;100.00
26489;BME280;14169;43.684;10.484;2023-04-15T00:52:12;100545.00;;;12.23;100.00
26489;BME280;14169;43.684;10.484;2023-04-15T00:54:38;100538.03;;;12.23;100.00
26489;BME280;14169;43.684;10.484;2023-04-15T00:57:05;100531.94;;;12.23;100.00
26489;BME280;14169;43.684;10.484;2023-04-15T00:59:32;100536.38;;;12.21;100.00
26489;BME280;14169;43.684;10.484;2023-04-15T01:01:58;100526.91;;;12.18;100.00
26489;BME280;14169;43.684;10.484;2023-04-15T01:04:24;100531.53;;;12.12;100.00
26489;BME280;14169;43.684;10.484;2023-04-15T01:06:49;100536.19;;;12.05;100.00
26489;BME280;14169;43.684;10.484;2023-04-15T01:09:15;100536.19;;;12.05;100.00
26489;BME280;14169;43.684;10.484;2023-04-15T01:11:41;100530.22;;;12.02;100.00
26489;BME280;14169;43.684;10.484;2023-04-15T01:14:08;100533.59;;;12.04;100.00
26489;BME280;14169;43.684;10.484;2023-04-15T01:16:33;100536.34;;;12.01;100.00
26489;BME280;14169;43.684;10.484;2023-04-15T01:18:58;100547.91;;;11.95;100.00
26489;BME280;14169;43.684;10.484;2023-04-15T01:21:24;100535.78;;;11.93;100.00
26489;BME280;14169;43.684;10.484;2023-04-15T01:23:52;100538.25;;;11.97;100.00
26489;BME280;14169;43.684;10.484;2023-04-15T01:26:20;100540.00;;;11.97;100.00
26489;BME280;14169;43.684;10.484;2023-04-15T01:28:46;100533.03;;;11.97;100.00
26489;BME280;14169;43.684;10.484;2023-04-15T01:31:12;100529.50;;;11.98;100.00
26489;BME280;14169;43.684;10.484;2023-04-15T01:33:40;100536.63;;;11.93;100.00
26489;BME280;14169;43.684;10.484;2023-04-15T01:36:07;100531.53;;;11.90;100.00
26489;BME280;14169;43.684;10.484;2023-04-15T01:38:34;100541.06;;;11.91;100.00
26489;BME280;14169;43.684;10.484;2023-04-15T01:41:00;100541.88;;;11.93;100.00
26489;BME280;14169;43.684;10.484;2023-04-15T01:43:26;100535.97;;;11.88;100.00
26489;BME280;14169;43.684;10.484;2023-04-15T01:45:52;100530.09;;;11.83;100.00
26489;BME280;14169;43.684;10.484;2023-04-15T01:48:18;100531.94;;;11.79;100.00
26489;BME280;14169;43.684;10.484;2023-04-15T01:50:44;100529.34;;;11.79;100.00
26489;BME280;14169;43.684;10.484;2023-04-15T01:53:10;100527.72;;;11.77;100.00
26489;BME280;14169;43.684;10.484;2023-04-15T01:55:35;100521.78;;;11.73;100.00
26489;BME280;14169;43.684;10.484;2023-04-15T01:58:01;100515.66;;;11.74;100.00
26489;BME280;14169;43.684;10.484;2023-04-15T02:00:26;100520.06;;;11.72;100.00
26489;BME280;14169;43.684;10.484;2023-04-15T02:02:52;100515.81;;;11.70;100.00
26489;BME280;14169;43.684;10.484;2023-04-15T02:05:18;100516.75;;;11.69;100.00
26489;BME280;14169;43.684;10.484;2023-04-15T02:07:44;100507.94;;;11.71;100.00
26489;BME280;14169;43.684;10.484;2023-04-15T02:10:09;100502.75;;;11.71;100.00
26489;BME280;14169;43.684;10.484;2023-04-15T02:12:37;100509.63;;;11.72;100.00
26489;BME280;14169;43.684;10.484;2023-04-15T02:15:03;100509.72;;;11.71;100.00
26489;BME280;14169;43.684;10.484;2023-04-15T02:17:29;100508.13;;;11.67;100.00
26489;BME280;14169;43.684;10.484;2023-04-15T02:19:55;100514.84;;;11.72;100.00
26489;BME280;14169;43.684;10.484;2023-04-15T02:22:21;100500.00;;;11.74;100.00
26489;BME280;14169;43.684;10.484;2023-04-15T02:24:46;100498.16;;;11.76;100.00
26489;BME280;14169;43.684;10.484;2023-04-15T02:27:16;100500.06;;;11.73;100.00
26489;BME280;14169;43.684;10.484;2023-04-15T02:29:45;100492.09;;;11.76;100.00
26489;BME280;14169;43.684;10.484;2023-04-15T02:32:11;100492.16;;;11.74;100.00
26489;BME280;14169;43.684;10.484;2023-04-15T02:34:38;100506.78;;;11.78;100.00
26489;BME280;14169;43.684;10.484;2023-04-15T02:37:06;100511.03;;;11.81;100.00
26489;BME280;14169;43.684;10.484;2023-04-15T02:39:31;100501.56;;;11.78;100.00
26489;BME280;14169;43.684;10.484;2023-04-15T02:41:57;100508.59;;;11.76;100.00
26489;BME280;14169;43.684;10.484;2023-04-15T02:44:24;100510.56;;;11.71;100.00
26489;BME280;14169;43.684;10.484;2023-04-15T02:46:50;100504.50;;;11.71;100.00
26489;BME280;14169;43.684;10.484;2023-04-15T02:49:17;100500.94;;;11.72;100.00
26489;BME280;14169;43.684;10.484;2023-04-15T02:51:43;100502.78;;;11.70;100.00
26489;BME280;14169;43.684;10.484;2023-04-15T02:54:11;100495.88;;;11.69;100.00
26489;BME280;14169;43.684;10.484;2023-04-15T02:56:37;100497.94;;;11.61;100.00
26489;BME280;14169;43.684;10.484;2023-04-15T02:59:02;100493.75;;;11.57;100.00
26489;BME280;14169;43.684;10.484;2023-04-15T03:01:28;100500.53;;;11.61;100.00
26489;BME280;14169;43.684;10.484;2023-04-15T03:03:54;100501.75;;;11.52;100.00
26489;BME280;14169;43.684;10.484;2023-04-15T03:06:19;100489.66;;;11.50;100.00
26489;BME280;14169;43.684;10.484;2023-04-15T03:08:45;100490.28;;;11.56;100.00
26489;BME280;14169;43.684;10.484;2023-04-15T03:11:10;100493.81;;;11.55;100.00
26489;BME280;14169;43.684;10.484;2023-04-15T03:13:36;100507.91;;;11.51;100.00
26489;BME280;14169;43.684;10.484;2023-04-15T03:16:03;100505.22;;;11.53;100.00
26489;BME280;14169;43.684;10.484;2023-04-15T03:18:29;100502.78;;;11.48;100.00
26489;BME280;14169;43.684;10.484;2023-04-15T03:20:55;100511.69;;;11.43;100.00
26489;BME280;14169;43.684;10.484;2023-04-15T03:23:20;100503.16;;;11.39;100.00
26489;BME280;14169;43.684;10.484;2023-04-15T03:25:45;100495.44;;;11.36;100.00
26489;BME280;14169;43.684;10.484;2023-04-15T03:28:11;100495.66;;;11.30;100.00
26489;BME280;14169;43.684;10.484;2023-04-15T03:30:36;100508.09;;;11.24;100.00
26489;BME280;14169;43.684;10.484;2023-04-15T03:33:02;100515.25;;;11.19;100.00
26489;BME280;14169;43.684;10.484;2023-04-15T03:35:27;100517.28;;;11.11;100.00
26489;BME280;14169;43.684;10.484;2023-04-15T03:37:52;100523.66;;;11.04;100.00
26489;BME280;14169;43.684;10.484;2023-04-15T03:40:19;100508.28;;;10.96;100.00
26489;BME280;14169;43.684;10.484;2023-04-15T03:42:45;100509.38;;;10.90;100.00
26489;BME280;14169;43.684;10.484;2023-04-15T03:45:10;100504.50;;;10.81;100.00
26489;BME280;14169;43.684;10.484;2023-04-15T03:47:36;100502.06;;;10.77;100.00
26489;BME280;14169;43.684;10.484;2023-04-15T03:50:01;100501.41;;;10.70;100.00
26489;BME280;14169;43.684;10.484;2023-04-15T03:52:27;100505.09;;;10.65;100.00
26489;BME280;14169;43.684;10.484;2023-04-15T03:54:52;100515.81;;;10.57;100.00
26489;BME280;14169;43.684;10.484;2023-04-15T03:57:18;100523.66;;;10.56;100.00
26489;BME280;14169;43.684;10.484;2023-04-15T03:59:43;100529.72;;;10.56;100.00
26489;BME280;14169;43.684;10.484;2023-04-15T04:02:08;100540.13;;;10.56;100.00
26489;BME280;14169;43.684;10.484;2023-04-15T04:04:34;100534.03;;;10.57;100.00
26489;BME280;14169;43.684;10.484;2023-04-15T04:06:59;100526.25;;;10.56;100.00
26489;BME280;14169;43.684;10.484;2023-04-15T04:09:25;100536.19;;;10.45;100.00
26489;BME280;14169;43.684;10.484;2023-04-15T04:11:50;100538.09;;;10.40;100.00
26489;BME280;14169;43.684;10.484;2023-04-15T04:14:16;100542.53;;;10.36;100.00
26489;BME280;14169;43.684;10.484;2023-04-15T04:16:41;100535.94;;;10.26;100.00
26489;BME280;14169;43.684;10.484;2023-04-15T04:19:06;100535.16;;;10.24;100.00
26489;BME280;14169;43.684;10.484;2023-04-15T04:21:32;100533.72;;;10.16;100.00
26489;BME280;14169;43.684;10.484;2023-04-15T04:23:58;100538.16;;;10.12;100.00
26489;BME280;14169;43.684;10.484;2023-04-15T04:26:24;100538.34;;;10.07;100.00
26489;BME280;14169;43.684;10.484;2023-04-15T04:28:49;100536.66;;;10.05;100.00
26489;BME280;14169;43.684;10.484;2023-04-15T04:31:14;100548.03;;;10.02;100.00
26489;BME280;14169;43.684;10.484;2023-04-15T04:33:40;100539.34;;;10.03;100.00
26489;BME280;14169;43.684;10.484;2023-04-15T04:36:06;100545.41;;;10.02;100.00
26489;BME280;14169;43.684;10.484;2023-04-15T04:38:31;100554.09;;;10.03;100.00
26489;BME280;14169;43.684;10.484;2023-04-15T04:40:57;100551.63;;;9.98;100.00
26489;BME280;14169;43.684;10.484;2023-04-15T04:43:22;100548.34;;;9.93;100.00
26489;BME280;14169;43.684;10.484;2023-04-15T04:45:48;100552.69;;;9.93;100.00
26489;BME280;14169;43.684;10.484;2023-04-15T04:48:13;100558.03;;;9.88;100.00
26489;BME280;14169;43.684;10.484;2023-04-15T04:50:38;100564.94;;;9.89;100.00
26489;BME280;14169;43.684;10.484;2023-04-15T04:53:04;100554.53;;;9.89;100.00
26489;BME280;14169;43.684;10.484;2023-04-15T04:55:30;100558.19;;;9.84;100.00
26489;BME280;14169;43.684;10.484;2023-04-15T04:57:56;100553.97;;;9.80;100.00
26489;BME280;14169;43.684;10.484;2023-04-15T05:00:21;100557.59;;;9.76;100.00
26489;BME280;14169;43.684;10.484;2023-04-15T05:02:47;100555.88;;;9.75;100.00
26489;BME280;14169;43.684;10.484;2023-04-15T05:05:12;100552.47;;;9.73;100.00
26489;BME280;14169;43.684;10.484;2023-04-15T05:07:37;100539.59;;;9.68;100.00
26489;BME280;14169;43.684;10.484;2023-04-15T05:10:04;100555.25;;;9.67;100.00
26489;BME280;14169;43.684;10.484;2023-04-15T05:12:30;100559.56;;;9.68;100.00
26489;BME280;14169;43.684;10.484;2023-04-15T05:14:55;100561.31;;;9.67;100.00
26489;BME280;14169;43.684;10.484;2023-04-15T05:17:21;100569.25;;;9.63;100.00
26489;BME280;14169;43.684;10.484;2023-04-15T05:19:46;100571.09;;;9.59;100.00
26489;BME280;14169;43.684;10.484;2023-04-15T05:22:12;100584.19;;;9.56;100.00
26489;BME280;14169;43.684;10.484;2023-04-15T05:24:37;100588.44;;;9.59;100.00
26489;BME280;14169;43.684;10.484;2023-04-15T05:27:03;100593.56;;;9.62;100.00
26489;BME280;14169;43.684;10.484;2023-04-15T05:29:28;100589.19;;;9.62;100.00
26489;BME280;14169;43.684;10.484;2023-04-15T05:31:54;100586.66;;;9.61;100.00
26489;BME280;14169;43.684;10.484;2023-04-15T05:34:20;100591.91;;;9.59;100.00
26489;BME280;14169;43.684;10.484;2023-04-15T05:36:45;100604.97;;;9.58;100.00
26489;BME280;14169;43.684;10.484;2023-04-15T05:39:11;100597.09;;;9.59;100.00
26489;BME280;14169;43.684;10.484;2023-04-15T05:41:37;100604.16;;;9.56;100.00
26489;BME280;14169;43.684;10.484;2023-04-15T05:44:02;100601.56;;;9.54;100.00
26489;BME280;14169;43.684;10.484;2023-04-15T05:46:28;100607.69;;;9.53;100.00
26489;BME280;14169;43.684;10.484;2023-04-15T05:48:53;100611.16;;;9.54;100.00
26489;BME280;14169;43.684;10.484;2023-04-15T05:51:18;100621.56;;;9.52;100.00
26489;BME280;14169;43.684;10.484;2023-04-15T05:53:46;100623.38;;;9.50;100.00
26489;BME280;14169;43.684;10.484;2023-04-15T05:56:11;100620.69;;;9.53;100.00
26489;BME280;14169;43.684;10.484;2023-04-15T05:58:37;100630.22;;;9.53;100.00
26489;BME280;14169;43.684;10.484;2023-04-15T06:01:03;100620.75;;;9.52;100.00
26489;BME280;14169;43.684;10.484;2023-04-15T06:03:29;100625.88;;;9.53;100.00
26489;BME280;14169;43.684;10.484;2023-04-15T06:05:55;100624.97;;;9.54;100.00
26489;BME280;14169;43.684;10.484;2023-04-15T06:08:20;100625.75;;;9.58;100.00
26489;BME280;14169;43.684;10.484;2023-04-15T06:10:46;100623.06;;;9.61;100.00
26489;BME280;14169;43.684;10.484;2023-04-15T06:13:11;100622.97;;;9.64;100.00
26489;BME280;14169;43.684;10.484;2023-04-15T06:15:37;100621.19;;;9.66;100.00
26489;BME280;14169;43.684;10.484;2023-04-15T06:18:02;100621.19;;;9.66;100.00
26489;BME280;14169;43.684;10.484;2023-04-15T06:20:27;100610.78;;;9.66;100.00
26489;BME280;14169;43.684;10.484;2023-04-15T06:22:53;100608.22;;;9.64;100.00
26489;BME280;14169;43.684;10.484;2023-04-15T06:25:19;100605.75;;;9.60;100.00
26489;BME280;14169;43.684;10.484;2023-04-15T06:27:45;100607.56;;;9.58;100.00
26489;BME280;14169;43.684;10.484;2023-04-15T06:30:10;100604.97;;;9.58;100.00
26489;BME280;14169;43.684;10.484;2023-04-15T06:32:36;100600.69;;;9.55;100.00
26489;BME280;14169;43.684;10.484;2023-04-15T06:35:01;100600.75;;;9.54;100.00
26489;BME280;14169;43.684;10.484;2023-04-15T06:37:28;100596.44;;;9.53;100.00
26489;BME280;14169;43.684;10.484;2023-04-15T06:39:53;100601.69;;;9.51;100.00
26489;BME280;14169;43.684;10.484;2023-04-15T06:42:18;100592.91;;;9.55;100.00
26489;BME280;14169;43.684;10.484;2023-04-15T06:44:44;100597.91;;;9.61;100.00
26489;BME280;14169;43.684;10.484;2023-04-15T06:47:09;100588.19;;;9.66;100.00
26489;BME280;14169;43.684;10.484;2023-04-15T06:49:37;100577.72;;;9.69;100.00
26489;BME280;14169;43.684;10.484;2023-04-15T06:52:03;100568.94;;;9.73;100.00
26489;BME280;14169;43.684;10.484;2023-04-15T06:54:29;100575.81;;;9.74;100.00
26489;BME280;14169;43.684;10.484;2023-04-15T06:56:54;100561.00;;;9.76;100.00
26489;BME280;14169;43.684;10.484;2023-04-15T06:59:20;100564.41;;;9.78;100.00
26489;BME280;14169;43.684;10.484;2023-04-15T07:01:46;100568.75;;;9.79;100.00
26489;BME280;14169;43.684;10.484;2023-04-15T07:04:11;100565.88;;;9.87;100.00
26489;BME280;14169;43.684;10.484;2023-04-15T07:06:37;100577.09;;;9.89;100.00
26489;BME280;14169;43.684;10.484;2023-04-15T07:09:03;100570.97;;;9.90;100.00
26489;BME280;14169;43.684;10.484;2023-04-15T07:11:29;100570.16;;;9.89;100.00
26489;BME280;14169;43.684;10.484;2023-04-15T07:13:54;100569.97;;;9.94;100.00
26489;BME280;14169;43.684;10.484;2023-04-15T07:16:20;100573.31;;;9.99;100.00
26489;BME280;14169;43.684;10.484;2023-04-15T07:18:46;100567.91;;;10.05;100.00
26489;BME280;14169;43.684;10.484;2023-04-15T07:21:11;100573.72;;;10.13;100.00
26489;BME280;14169;43.684;10.484;2023-04-15T07:23:36;100569.91;;;10.23;100.00
26489;BME280;14169;43.684;10.484;2023-04-15T07:26:02;100573.97;;;10.32;100.00
26489;BME280;14169;43.684;10.484;2023-04-15T07:28:28;100583.25;;;10.39;100.00
26489;BME280;14169;43.684;10.484;2023-04-15T07:30:54;100577.84;;;10.45;100.00
26489;BME280;14169;43.684;10.484;2023-04-15T07:33:19;100567.28;;;10.49;100.00
26489;BME280;14169;43.684;10.484;2023-04-15T07:35:45;100568.50;;;10.64;100.00
26489;BME280;14169;43.684;10.484;2023-04-15T07:38:11;100567.94;;;10.80;100.00
26489;BME280;14169;43.684;10.484;2023-04-15T07:40:37;100556.56;;;10.83;100.00
26489;BME280;14169;43.684;10.484;2023-04-15T07:43:03;100558.22;;;10.85;100.00
26489;BME280;14169;43.684;10.484;2023-04-15T07:45:30;100549.03;;;10.99;100.00
26489;BME280;14169;43.684;10.484;2023-04-15T07:47:56;100550.16;;;11.15;100.00
26489;BME280;14169;43.684;10.484;2023-04-15T07:50:21;100537.84;;;11.18;100.00
26489;BME280;14169;43.684;10.484;2023-04-15T07:52:48;100548.06;;;11.24;100.00
26489;BME280;14169;43.684;10.484;2023-04-15T07:55:13;100544.00;;;11.17;100.00
26489;BME280;14169;43.684;10.484;2023-04-15T07:57:40;100541.88;;;11.27;100.00
26489;BME280;14169;43.684;10.484;2023-04-15T08:00:06;100539.84;;;11.35;100.00
26489;BME280;14169;43.684;10.484;2023-04-15T08:02:32;100547.53;;;11.38;100.00
26489;BME280;14169;43.684;10.484;2023-04-15T08:04:58;100538.81;;;11.39;100.00
26489;BME280;14169;43.684;10.484;2023-04-15T08:07:24;100537.56;;;11.49;100.00
26489;BME280;14169;43.684;10.484;2023-04-15T08:09:49;100541.81;;;11.51;100.00
26489;BME280;14169;43.684;10.484;2023-04-15T08:12:15;100549.88;;;11.67;100.00
26489;BME280;14169;43.684;10.484;2023-04-15T08:14:41;100548.63;;;11.99;100.00
26489;BME280;14169;43.684;10.484;2023-04-15T08:17:06;100546.13;;;11.96;100.00
26489;BME280;14169;43.684;10.484;2023-04-15T08:19:32;100548.72;;;11.96;100.00
26489;BME280;14169;43.684;10.484;2023-04-15T08:21:57;100551.78;;;12.07;100.00
26489;BME280;14169;43.684;10.484;2023-04-15T08:24:23;100546.94;;;12.18;100.00
26489;BME280;14169;43.684;10.484;2023-04-15T08:26:50;100547.72;;;12.20;100.00
26489;BME280;14169;43.684;10.484;2023-04-15T08:29:16;100546.91;;;12.39;100.00
26489;BME280;14169;43.684;10.484;2023-04-15T08:31:41;100552.13;;;12.59;100.00
26489;BME280;14169;43.684;10.484;2023-04-15T08:34:07;100548.59;;;12.60;100.00
26489;BME280;14169;43.684;10.484;2023-04-15T08:36:33;100546.78;;;12.62;100.00
26489;BME280;14169;43.684;10.484;2023-04-15T08:38:58;100547.28;;;12.71;100.00
26489;BME280;14169;43.684;10.484;2023-04-15T08:41:26;100545.63;;;12.88;100.00
26489;BME280;14169;43.684;10.484;2023-04-15T08:44:04;100545.44;;;13.11;100.00
26489;BME280;14169;43.684;10.484;2023-04-15T08:46:31;100545.06;;;13.20;100.00
26489;BME280;14169;43.684;10.484;2023-04-15T08:48:58;100555.94;;;13.30;100.00
26489;BME280;14169;43.684;10.484;2023-04-15T08:51:23;100551.34;;;13.54;100.00
26489;BME280;14169;43.684;10.484;2023-04-15T08:53:52;100565.22;;;13.56;100.00
26489;BME280;14169;43.684;10.484;2023-04-15T08:56:18;100557.16;;;13.60;100.00
26489;BME280;14169;43.684;10.484;2023-04-15T08:58:45;100560.13;;;13.53;100.00
26489;BME280;14169;43.684;10.484;2023-04-15T09:01:12;100567.81;;;13.56;100.00
26489;BME280;14169;43.684;10.484;2023-04-15T09:03:37;100565.44;;;13.51;100.00
26489;BME280;14169;43.684;10.484;2023-04-15T09:06:06;100563.25;;;13.61;100.00
26489;BME280;14169;43.684;10.484;2023-04-15T09:08:32;100561.41;;;13.63;100.00
26489;BME280;14169;43.684;10.484;2023-04-15T09:11:00;100561.19;;;13.67;100.00
26489;BME280;14169;43.684;10.484;2023-04-15T09:13:25;100573.94;;;13.73;100.00
26489;BME280;14169;43.684;10.484;2023-04-15T09:15:52;100569.50;;;13.75;100.00
26489;BME280;14169;43.684;10.484;2023-04-15T09:18:31;100571.72;;;13.66;100.00
26489;BME280;14169;43.684;10.484;2023-04-15T09:21:08;100570.69;;;13.87;100.00
26489;BME280;14169;43.684;10.484;2023-04-15T09:23:36;100571.06;;;14.15;100.00
26489;BME280;14169;43.684;10.484;2023-04-15T09:26:03;100579.31;;;14.24;100.00
26489;BME280;14169;43.684;10.484;2023-04-15T09:28:29;100578.66;;;14.72;100.00
26489;BME280;14169;43.684;10.484;2023-04-15T09:30:56;100566.94;;;14.62;100.00
26489;BME280;14169;43.684;10.484;2023-04-15T09:33:22;100571.16;;;14.48;100.00
26489;BME280;14169;43.684;10.484;2023-04-15T09:36:02;100573.72;;;14.32;100.00
26489;BME280;14169;43.684;10.484;2023-04-15T09:38:29;100571.47;;;14.76;100.00
26489;BME280;14169;43.684;10.484;2023-04-15T09:40:55;100569.63;;;15.10;100.00
26489;BME280;14169;43.684;10.484;2023-04-15T09:43:25;100580.16;;;15.26;100.00
26489;BME280;14169;43.684;10.484;2023-04-15T09:46:01;100575.28;;;15.51;100.00
26489;BME280;14169;43.684;10.484;2023-04-15T09:48:26;100583.31;;;15.95;100.00
26489;BME280;14169;43.684;10.484;2023-04-15T09:50:56;100581.25;;;16.16;100.00
26489;BME280;14169;43.684;10.484;2023-04-15T09:53:23;100576.13;;;15.98;100.00
26489;BME280;14169;43.684;10.484;2023-04-15T09:55:56;100574.25;;;15.85;100.00
26489;BME280;14169;43.684;10.484;2023-04-15T09:58:24;100573.94;;;15.60;100.00
26489;BME280;14169;43.684;10.484;2023-04-15T10:00:51;100576.00;;;15.38;100.00
26489;BME280;14169;43.684;10.484;2023-04-15T10:03:23;100574.09;;;15.41;100.00
26489;BME280;14169;43.684;10.484;2023-04-15T10:05:50;100560.66;;;15.63;100.00
26489;BME280;14169;43.684;10.484;2023-04-15T10:08:19;100557.66;;;15.69;100.00
26489;BME280;14169;43.684;10.484;2023-04-15T10:10:46;100569.53;;;15.91;100.00
26489;BME280;14169;43.684;10.484;2023-04-15T10:13:17;100555.47;;;16.22;100.00
26489;BME280;14169;43.684;10.484;2023-04-15T10:15:59;100554.25;;;16.43;100.00
26489;BME280;14169;43.684;10.484;2023-04-15T10:18:27;100550.41;;;16.93;100.00
26489;BME280;14169;43.684;10.484;2023-04-15T10:20:53;100558.66;;;16.72;100.00
26489;BME280;14169;43.684;10.484;2023-04-15T10:23:19;100555.41;;;16.53;100.00
26489;BME280;14169;43.684;10.484;2023-04-15T10:25:46;100553.50;;;16.41;100.00
26489;BME280;14169;43.684;10.484;2023-04-15T10:28:15;100554.75;;;16.50;100.00
26489;BME280;14169;43.684;10.484;2023-04-15T10:30:41;100555.50;;;16.52;100.00
26489;BME280;14169;43.684;10.484;2023-04-15T10:33:08;100551.94;;;16.37;100.00
26489;BME280;14169;43.684;10.484;2023-04-15T10:35:35;100560.53;;;16.41;100.00
26489;BME280;14169;43.684;10.484;2023-04-15T10:38:01;100548.06;;;16.44;100.00
26489;BME280;14169;43.684;10.484;2023-04-15T10:40:28;100548.50;;;16.66;100.00
26489;BME280;14169;43.684;10.484;2023-04-15T10:42:57;100541.44;;;17.37;100.00
26489;BME280;14169;43.684;10.484;2023-04-15T10:45:27;100537.22;;;18.02;100.00
26489;BME280;14169;43.684;10.484;2023-04-15T10:47:57;100538.16;;;18.40;100.00
26489;BME280;14169;43.684;10.484;2023-04-15T10:50:26;100528.00;;;18.22;100.00
26489;BME280;14169;43.684;10.484;2023-04-15T10:52:52;100524.06;;;18.15;100.00
26489;BME280;14169;43.684;10.484;2023-04-15T10:55:21;100512.59;;;17.89;100.00
26489;BME280;14169;43.684;10.484;2023-04-15T10:57:54;100513.34;;;17.64;100.00
26489;BME280;14169;43.684;10.484;2023-04-15T11:00:28;100513.84;;;18.10;100.00
26489;BME280;14169;43.684;10.484;2023-04-15T11:02:59;100505.38;;;18.05;100.00
26489;BME280;14169;43.684;10.484;2023-04-15T11:05:50;100503.88;;;18.01;100.00
26489;BME280;14169;43.684;10.484;2023-04-15T11:08:16;100503.50;;;18.20;100.00
26489;BME280;14169;43.684;10.484;2023-04-15T11:15:39;100505.50;;;18.56;100.00
26489;BME280;14169;43.684;10.484;2023-04-15T11:20:51;100488.66;;;19.19;100.00
26489;BME280;14169;43.684;10.484;2023-04-15T11:23:18;100489.59;;;19.18;100.00
26489;BME280;14169;43.684;10.484;2023-04-15T11:25:44;100485.59;;;19.25;100.00
26489;BME280;14169;43.684;10.484;2023-04-15T11:28:11;100488.94;;;19.40;100.00
26489;BME280;14169;43.684;10.484;2023-04-15T11:30:37;100486.22;;;19.53;100.00
26489;BME280;14169;43.684;10.484;2023-04-15T11:33:08;100480.88;;;19.89;100.00
26489;BME280;14169;43.684;10.484;2023-04-15T11:35:34;100478.13;;;20.14;100.00
26489;BME280;14169;43.684;10.484;2023-04-15T11:38:04;100480.94;;;20.35;100.00
26489;BME280;14169;43.684;10.484;2023-04-15T11:40:30;100471.59;;;20.64;100.00
26489;BME280;14169;43.684;10.484;2023-04-15T11:43:17;100466.88;;;20.45;100.00
26489;BME280;14169;43.684;10.484;2023-04-15T11:45:51;100461.84;;;20.64;100.00
26489;BME280;14169;43.684;10.484;2023-04-15T11:48:18;100468.97;;;20.86;100.00
26489;BME280;14169;43.684;10.484;2023-04-15T11:50:44;100461.00;;;21.08;100.00
26489;BME280;14169;43.684;10.484;2023-04-15T11:53:11;100450.50;;;21.40;100.00
26489;BME280;14169;43.684;10.484;2023-04-15T11:55:55;100447.06;;;21.60;100.00
26489;BME280;14169;43.684;10.484;2023-04-15T11:58:23;100447.81;;;21.82;100.00
26489;BME280;14169;43.684;10.484;2023-04-15T12:00:51;100444.03;;;22.17;100.00
26489;BME280;14169;43.684;10.484;2023-04-15T12:13:54;100441.84;;;22.42;95.14
26489;BME280;14169;43.684;10.484;2023-04-15T12:16:20;100443.28;;;22.77;94.40
26489;BME280;14169;43.684;10.484;2023-04-15T12:18:53;100441.66;;;23.25;92.45
26489;BME280;14169;43.684;10.484;2023-04-15T12:21:24;100433.88;;;23.81;91.34
26489;BME280;14169;43.684;10.484;2023-04-15T12:23:54;100437.78;;;24.15;87.92
26489;BME280;14169;43.684;10.484;2023-04-15T12:26:33;100433.31;;;23.96;85.34
26489;BME280;14169;43.684;10.484;2023-04-15T12:29:06;100430.63;;;23.48;86.82
26489;BME280;14169;43.684;10.484;2023-04-15T12:33:58;100425.78;;;23.14;92.04
26489;BME280;14169;43.684;10.484;2023-04-15T12:36:25;100426.84;;;23.61;87.39
26489;BME280;14169;43.684;10.484;2023-04-15T12:38:50;100420.44;;;23.63;82.19
26489;BME280;14169;43.684;10.484;2023-04-15T12:41:16;100415.38;;;23.98;80.83
26489;BME280;14169;43.684;10.484;2023-04-15T12:43:43;100410.28;;;24.24;78.96
26489;BME280;14169;43.684;10.484;2023-04-15T12:46:10;100410.41;;;24.42;76.95
26489;BME280;14169;43.684;10.484;2023-04-15T12:48:35;100404.47;;;24.57;73.60
26489;BME280;14169;43.684;10.484;2023-04-15T12:51:00;100400.59;;;25.06;74.49